createdAt,value
2023-05-06T00:00:14.614Z,5.30
2023-05-06T00:03:20.170Z,5.22
2023-05-06T00:06:22.465Z,5.07
2023-05-06T00:09:24.929Z,5.30
2023-05-06T00:12:27.603Z,5.60
2023-05-06T00:15:31.559Z,5.30
2023-05-06T00:18:36.212Z,5.47
2023-05-06T00:21:41.376Z,5.43
2023-05-06T00:24:43.491Z,5.55
2023-05-06T00:27:45.701Z,5.70
2023-05-06T00:30:49.601Z,5.68
2023-05-06T00:33:54.357Z,5.80
2023-05-06T00:36:58.368Z,5.60
2023-05-06T00:40:01.101Z,5.33
2023-05-06T00:43:07.246Z,5.15
2023-05-06T00:46:13.941Z,5.88
2023-05-06T00:49:16.167Z,6.22
2023-05-06T00:52:20.204Z,6.13
2023-05-06T00:55:22.358Z,5.97
2023-05-06T00:58:25.030Z,5.47
2023-05-06T01:01:30.777Z,6.07
2023-05-06T01:04:36.419Z,5.68
2023-05-06T01:08:11.524Z,5.93
2023-05-06T01:11:17.743Z,6.03
2023-05-06T01:14:33.765Z,6.05
2023-05-06T01:17:42.341Z,5.97
2023-05-06T01:20:50.160Z,6.00
2023-05-06T01:23:52.547Z,5.57
2023-05-06T01:26:54.636Z,5.85
2023-05-06T01:29:58.458Z,5.75
2023-05-06T01:33:29.575Z,6.25
2023-05-06T01:37:17.253Z,6.30
2023-05-06T01:40:23.774Z,5.90
2023-05-06T01:43:29.586Z,6.10
2023-05-06T01:46:35.082Z,6.05
2023-05-06T01:49:37.474Z,5.78
2023-05-06T01:52:39.737Z,6.03
2023-05-06T01:55:41.926Z,6.32
2023-05-06T01:58:44.008Z,5.70
2023-05-06T02:01:46.120Z,5.78
2023-05-06T02:04:48.335Z,5.80
2023-05-06T02:07:50.490Z,5.55
2023-05-06T02:10:52.595Z,6.17
2023-05-06T02:13:55.915Z,5.72
2023-05-06T02:17:06.157Z,5.80
2023-05-06T02:20:11.184Z,5.70
2023-05-06T02:23:14.718Z,5.77
2023-05-06T02:26:16.762Z,6.05
2023-05-06T02:29:18.846Z,5.80
2023-05-06T02:32:21.070Z,5.57
2023-05-06T02:35:23.509Z,6.30
2023-05-06T02:38:25.833Z,6.13
2023-05-06T02:41:28.358Z,6.55
2023-05-06T02:44:30.674Z,6.57
2023-05-06T02:47:34.136Z,6.70
2023-05-06T02:50:36.267Z,6.32
2023-05-06T02:53:40.993Z,6.43
2023-05-06T02:56:43.325Z,6.10
2023-05-06T02:59:45.861Z,6.47
2023-05-06T03:02:51.480Z,6.53
2023-05-06T03:05:53.064Z,6.70
2023-05-06T03:08:55.572Z,6.15
2023-05-06T03:11:57.594Z,6.50
2023-05-06T03:14:59.963Z,6.57
2023-05-06T03:18:02.415Z,6.13
2023-05-06T03:21:05.814Z,5.68
2023-05-06T03:24:17.025Z,5.72
2023-05-06T03:27:19.249Z,5.60
2023-05-06T03:30:25.431Z,5.80
2023-05-06T03:33:30.765Z,5.82
2023-05-06T03:36:34.377Z,5.85
2023-05-06T03:39:36.936Z,5.53
2023-05-06T03:42:40.296Z,6.10
2023-05-06T03:45:43.692Z,5.85
2023-05-06T03:48:46.074Z,5.95
2023-05-06T03:51:53.982Z,5.70
2023-05-06T03:54:58.813Z,6.13
2023-05-06T03:58:02.530Z,6.05
2023-05-06T04:01:04.506Z,6.18
2023-05-06T04:04:09.663Z,6.38
2023-05-06T04:07:12.534Z,6.68
2023-05-06T04:10:15.205Z,6.47
2023-05-06T04:13:23.041Z,6.40
2023-05-06T04:16:25.184Z,6.38
2023-05-06T04:19:27.670Z,6.30
2023-05-06T04:22:29.351Z,6.50
2023-05-06T04:25:32.846Z,6.17
2023-05-06T04:28:35.308Z,6.68
2023-05-06T04:31:40.306Z,6.60
2023-05-06T04:34:47.407Z,6.73
2023-05-06T04:37:51.288Z,6.60
2023-05-06T04:41:01.615Z,7.35
2023-05-06T04:44:04.822Z,6.85
2023-05-06T04:47:08.188Z,7.28
2023-05-06T04:50:10.885Z,7.97
2023-05-06T04:53:13.708Z,7.05
2023-05-06T04:56:16.566Z,7.57
2023-05-06T04:59:25.405Z,8.02
2023-05-06T05:02:27.570Z,7.68
2023-05-06T05:05:34.339Z,7.87
2023-05-06T05:08:46.158Z,7.80
2023-05-06T05:11:49.523Z,8.05
2023-05-06T05:14:51.313Z,8.02
2023-05-06T05:17:54.249Z,8.23
2023-05-06T05:20:58.694Z,8.93
2023-05-06T05:24:02.547Z,10.18
2023-05-06T05:27:08.978Z,9.60
2023-05-06T05:30:11.473Z,9.95
2023-05-06T05:33:14.328Z,10.95
2023-05-06T05:36:17.845Z,10.60
2023-05-06T05:39:21.864Z,10.57
2023-05-06T05:42:24.080Z,9.95
2023-05-06T05:45:27.116Z,9.45
2023-05-06T05:48:32.641Z,9.90
2023-05-06T05:51:35.912Z,9.45
2023-05-06T05:54:40.020Z,10.23
2023-05-06T05:57:42.726Z,10.45
2023-05-06T06:00:45.253Z,10.03
2023-05-06T06:03:54.504Z,10.27
2023-05-06T06:06:58.149Z,10.68
2023-05-06T06:10:00.584Z,11.23
2023-05-06T06:13:03.055Z,11.20
2023-05-06T06:16:07.798Z,10.82
2023-05-06T06:19:10.051Z,10.65
2023-05-06T06:22:11.916Z,11.00
2023-05-06T06:25:14.584Z,10.57
2023-05-06T06:28:16.977Z,10.48
2023-05-06T06:31:20.458Z,10.30
2023-05-06T06:34:24.533Z,10.77
2023-05-06T06:37:27.692Z,10.50
2023-05-06T06:40:36.142Z,10.27
2023-05-06T06:43:43.693Z,10.20
2023-05-06T06:46:56.894Z,10.90
2023-05-06T06:50:00.300Z,10.45
2023-05-06T06:53:06.633Z,11.18
2023-05-06T06:56:11.951Z,10.80
2023-05-06T06:59:17.000Z,10.77
2023-05-06T07:02:23.522Z,10.30
2023-05-06T07:05:26.909Z,10.63
2023-05-06T07:08:28.581Z,10.93
2023-05-06T07:11:30.211Z,9.63
2023-05-06T07:14:32.189Z,10.02
2023-05-06T07:17:34.441Z,10.32
2023-05-06T07:20:39.051Z,9.88
2023-05-06T07:23:41.400Z,10.20
2023-05-06T07:26:43.900Z,9.57
2023-05-06T07:29:46.645Z,9.52
2023-05-06T07:32:50.610Z,9.75
2023-05-06T07:35:56.417Z,8.97
2023-05-06T07:39:01.557Z,9.02
2023-05-06T07:42:06.707Z,8.80
2023-05-06T07:45:12.252Z,9.05
2023-05-06T07:48:21.347Z,8.98
2023-05-06T07:51:30.367Z,8.25
2023-05-06T07:54:33.963Z,8.63
2023-05-06T07:57:38.531Z,7.82
2023-05-06T08:00:42.208Z,7.30
2023-05-06T08:03:44.464Z,6.95
2023-05-06T08:06:48.173Z,6.90
2023-05-06T08:09:50.753Z,6.70
2023-05-06T08:12:52.911Z,6.57
2023-05-06T08:15:54.715Z,6.43
2023-05-06T08:18:56.774Z,6.63
2023-05-06T08:21:58.705Z,5.82
2023-05-06T08:25:01.321Z,5.30
2023-05-06T08:28:04.830Z,4.50
2023-05-06T08:31:06.982Z,5.57
2023-05-06T08:34:09.289Z,5.13
2023-05-06T08:37:11.174Z,5.50
2023-05-06T08:40:22.429Z,5.45
2023-05-06T08:43:28.489Z,4.97
2023-05-06T08:46:31.125Z,5.00
2023-05-06T08:49:33.441Z,5.03
2023-05-06T08:52:37.137Z,5.07
2023-05-06T08:55:40.900Z,5.70
2023-05-06T08:58:49.287Z,5.18
2023-05-06T09:01:52.326Z,5.70
2023-05-06T09:04:55.043Z,5.50
2023-05-06T09:07:57.280Z,5.10
2023-05-06T09:10:58.968Z,4.63
2023-05-06T09:14:10.260Z,5.38
2023-05-06T09:17:24.526Z,4.40
2023-05-06T09:20:29.547Z,4.47
2023-05-06T09:23:32.000Z,4.70
2023-05-06T09:26:36.101Z,4.60
2023-05-06T09:29:39.361Z,4.57
2023-05-06T09:32:44.035Z,4.60
2023-05-06T09:35:49.963Z,4.30
2023-05-06T09:38:54.868Z,4.30
2023-05-06T09:41:57.548Z,4.05
2023-05-06T09:45:02.200Z,4.10
2023-05-06T09:48:09.128Z,5.32
2023-05-06T09:51:11.025Z,4.32
2023-05-06T09:54:15.893Z,4.07
2023-05-06T09:57:18.500Z,4.15
2023-05-06T10:00:26.835Z,3.70
2023-05-06T10:03:29.614Z,3.95
2023-05-06T10:06:36.118Z,3.97
2023-05-06T10:09:41.882Z,4.10
2023-05-06T10:12:44.794Z,4.20
2023-05-06T10:15:49.208Z,4.43
2023-05-06T10:18:55.391Z,4.32
2023-05-06T10:22:21.052Z,4.80
2023-05-06T10:25:49.273Z,4.17
2023-05-06T10:28:53.483Z,3.83
2023-05-06T10:31:57.744Z,4.38
2023-05-06T10:35:11.497Z,4.10
2023-05-06T10:38:23.822Z,3.83
2023-05-06T10:41:28.260Z,3.23
2023-05-06T10:45:03.945Z,3.25
2023-05-06T10:48:09.724Z,3.53
2023-05-06T10:51:17.591Z,3.67
2023-05-06T10:54:20.885Z,3.22
2023-05-06T10:57:29.114Z,3.40
2023-05-06T11:00:35.591Z,3.28
2023-05-06T11:03:37.838Z,3.08
2023-05-06T11:06:44.126Z,3.45
2023-05-06T11:10:01.681Z,3.55
2023-05-06T11:13:23.604Z,3.60
2023-05-06T11:16:51.742Z,3.22
2023-05-06T11:20:20.319Z,3.28
2023-05-06T11:23:22.462Z,3.15
2023-05-06T11:26:25.064Z,3.30
2023-05-06T11:29:27.949Z,2.90
2023-05-06T11:32:30.675Z,2.30
2023-05-06T11:35:38.589Z,2.50
2023-05-06T11:38:45.578Z,2.40
2023-05-06T11:41:48.986Z,2.28
2023-05-06T11:44:54.356Z,2.30
2023-05-06T11:47:57.275Z,1.90
2023-05-06T11:51:00.083Z,2.13
2023-05-06T11:54:09.225Z,2.30
2023-05-06T11:57:11.718Z,2.20
2023-05-06T12:00:14.769Z,1.90
2023-05-06T12:03:16.492Z,2.00
2023-05-06T12:06:22.099Z,1.70
2023-05-06T12:09:26.436Z,2.13
2023-05-06T12:12:28.249Z,1.70
2023-05-06T12:15:30.730Z,1.70
2023-05-06T12:18:32.626Z,2.00
2023-05-06T12:21:38.993Z,1.90
2023-05-06T12:24:41.141Z,2.92
2023-05-06T12:27:42.750Z,3.13
2023-05-06T12:30:45.942Z,2.80
2023-05-06T12:33:50.605Z,2.47
2023-05-06T12:36:52.940Z,2.30
2023-05-06T12:39:57.833Z,2.35
2023-05-06T12:43:04.028Z,2.20
2023-05-06T12:46:08.124Z,2.50
2023-05-06T12:49:09.749Z,2.50
2023-05-06T12:52:11.748Z,2.00
2023-05-06T12:55:14.190Z,2.25
2023-05-06T12:58:18.492Z,2.08
2023-05-06T13:01:22.090Z,2.20
2023-05-06T13:04:24.979Z,2.20
2023-05-06T13:07:27.072Z,2.00
2023-05-06T13:10:29.259Z,2.08
2023-05-06T13:13:31.954Z,2.03
2023-05-06T13:16:35.404Z,1.90
2023-05-06T13:19:37.819Z,2.10
2023-05-06T13:22:53.178Z,2.60
2023-05-06T13:26:04.147Z,2.50
2023-05-06T13:29:08.960Z,2.50
2023-05-06T13:32:11.053Z,2.40
2023-05-06T13:35:13.211Z,2.40
2023-05-06T13:38:15.427Z,2.85
2023-05-06T13:41:17.668Z,2.80
2023-05-06T13:44:21.463Z,2.88
2023-05-06T13:47:23.885Z,2.70
2023-05-06T13:50:26.016Z,2.70
2023-05-06T13:53:28.179Z,2.92
2023-05-06T13:56:29.845Z,2.40
2023-05-06T13:59:31.589Z,1.90
2023-05-06T14:02:36.189Z,2.17
2023-05-06T14:05:38.290Z,2.30
2023-05-06T14:08:41.522Z,2.58
2023-05-06T14:11:43.654Z,2.60
2023-05-06T14:14:45.760Z,2.92
2023-05-06T14:17:48.175Z,2.70
2023-05-06T14:20:49.787Z,2.53
2023-05-06T14:23:52.342Z,2.60
2023-05-06T14:26:55.061Z,2.20
2023-05-06T14:29:57.547Z,2.20
2023-05-06T14:33:00.696Z,2.10
2023-05-06T14:36:03.534Z,2.03
2023-05-06T14:39:05.688Z,1.90
2023-05-06T14:42:08.045Z,2.03
2023-05-06T14:45:10.894Z,1.90
2023-05-06T14:48:12.816Z,1.77
2023-05-06T14:51:15.365Z,1.90
2023-05-06T14:54:17.557Z,1.75
2023-05-06T14:57:19.819Z,2.03
2023-05-06T15:00:21.877Z,2.00
2023-05-06T15:03:24.004Z,1.90
2023-05-06T15:06:26.356Z,2.20
2023-05-06T15:09:28.699Z,2.10
2023-05-06T15:12:33.505Z,1.90
2023-05-06T15:15:38.636Z,1.90
2023-05-06T15:18:41.965Z,1.90
2023-05-06T15:21:44.156Z,1.87
2023-05-06T15:24:46.340Z,1.92
2023-05-06T15:27:49.204Z,1.85
2023-05-06T15:30:51.297Z,2.20
2023-05-06T15:33:52.938Z,2.30
2023-05-06T15:36:58.839Z,2.10
2023-05-06T15:40:03.182Z,1.90
2023-05-06T15:43:05.649Z,1.70
2023-05-06T15:46:08.145Z,2.10
2023-05-06T15:52:17.340Z,1.90
2023-05-06T15:55:19.648Z,1.90
2023-05-06T15:58:23.306Z,1.88
2023-05-06T16:01:45.082Z,2.20
2023-05-06T16:04:48.677Z,2.00
2023-05-06T16:07:52.173Z,1.90
2023-05-06T16:10:54.349Z,1.70
2023-05-06T16:13:56.608Z,2.00
2023-05-06T16:16:59.208Z,1.90
2023-05-06T16:20:01.384Z,2.20
2023-05-06T16:23:03.332Z,1.80
2023-05-06T16:26:06.754Z,1.88
2023-05-06T16:29:08.912Z,1.90
2023-05-06T16:32:12.626Z,1.70
2023-05-06T16:35:19.500Z,1.70
2023-05-06T16:38:25.191Z,2.33
2023-05-06T16:41:27.004Z,1.88
2023-05-06T16:47:49.435Z,9.60
2023-05-06T16:50:53.241Z,6.90
2023-05-06T16:53:59.997Z,4.50
2023-05-06T16:57:04.090Z,3.22
2023-05-06T17:00:17.367Z,4.72
2023-05-06T17:03:19.993Z,4.97
2023-05-06T17:06:30.850Z,4.17
2023-05-06T17:09:33.683Z,2.70
2023-05-06T17:12:44.296Z,2.42
2023-05-06T17:15:48.745Z,2.35
2023-05-06T17:18:51.317Z,2.10
2023-05-06T17:21:58.199Z,2.23
2023-05-06T17:24:59.845Z,2.28
2023-05-06T17:28:03.309Z,2.20
2023-05-06T17:31:13.442Z,2.85
2023-05-06T17:34:15.674Z,6.43
2023-05-06T17:37:17.861Z,8.23
2023-05-06T17:40:19.460Z,6.72
2023-05-06T17:43:23.353Z,6.32
2023-05-06T17:46:26.928Z,4.57
2023-05-06T17:49:29.644Z,3.60
2023-05-06T17:52:33.588Z,2.60
2023-05-06T17:55:35.816Z,2.80
2023-05-06T17:58:37.458Z,2.60
2023-05-06T18:01:40.147Z,2.65
2023-05-06T18:04:43.565Z,2.90
2023-05-06T18:07:45.920Z,2.67
2023-05-06T18:10:51.977Z,2.92
2023-05-06T18:13:54.025Z,2.78
2023-05-06T18:16:56.216Z,2.80
2023-05-06T18:19:58.408Z,2.80
2023-05-06T18:23:03.639Z,2.77
2023-05-06T18:26:06.290Z,2.20
2023-05-06T18:29:07.973Z,2.67
2023-05-06T18:32:10.404Z,3.00
2023-05-06T18:35:14.812Z,3.40
2023-05-06T18:38:17.064Z,3.30
2023-05-06T18:41:28.170Z,2.88
2023-05-06T18:44:30.762Z,2.85
2023-05-06T18:47:35.998Z,2.90
2023-05-06T18:50:38.491Z,3.47
2023-05-06T18:53:43.381Z,3.40
2023-05-06T18:56:45.523Z,3.40
2023-05-06T18:59:48.667Z,3.60
2023-05-06T19:02:50.563Z,4.00
2023-05-06T19:05:52.583Z,3.72
2023-05-06T19:08:54.683Z,3.60
2023-05-06T19:11:56.409Z,3.67
2023-05-06T19:14:58.409Z,3.63
2023-05-06T19:18:00.508Z,3.70
2023-05-06T19:21:02.630Z,4.10
2023-05-06T19:24:06.358Z,3.97
2023-05-06T19:27:08.508Z,4.00
2023-05-06T19:30:11.730Z,4.05
2023-05-06T19:33:14.468Z,3.85
2023-05-06T19:36:16.775Z,3.97
2023-05-06T19:39:25.777Z,3.80
2023-05-06T19:42:28.251Z,4.18
2023-05-06T19:45:32.459Z,3.95
2023-05-06T19:48:35.572Z,4.03
2023-05-06T19:51:39.275Z,3.95
2023-05-06T19:54:42.208Z,3.60
2023-05-06T19:57:46.719Z,3.85
2023-05-06T20:00:49.613Z,4.65
2023-05-06T20:03:51.541Z,4.68
2023-05-06T20:06:53.648Z,4.70
2023-05-06T20:09:56.861Z,6.00
2023-05-06T20:13:02.402Z,5.10
2023-05-06T20:16:04.797Z,5.35
2023-05-06T20:19:07.902Z,5.28
2023-05-06T20:22:09.593Z,5.40
2023-05-06T20:25:18.909Z,5.68
2023-05-06T20:28:20.626Z,6.00
2023-05-06T20:31:22.804Z,5.80
2023-05-06T20:34:24.419Z,5.63
2023-05-06T20:37:26.590Z,5.63
2023-05-06T20:40:29.297Z,5.68
2023-05-06T20:43:31.654Z,5.85
2023-05-06T20:46:36.787Z,5.68
2023-05-06T20:49:39.785Z,5.40
2023-05-06T20:52:42.319Z,5.63
2023-05-06T20:55:43.969Z,5.72
2023-05-06T20:58:46.120Z,6.32
2023-05-06T21:01:47.769Z,7.57
2023-05-06T21:04:49.439Z,7.23
2023-05-06T21:07:51.708Z,6.88
2023-05-06T21:10:53.746Z,7.18
2023-05-06T21:13:55.550Z,6.72
2023-05-06T21:16:58.107Z,6.53
2023-05-06T21:20:00.063Z,6.60
2023-05-06T21:23:04.178Z,6.10
2023-05-06T21:26:05.784Z,5.97
2023-05-06T21:29:07.806Z,6.30
2023-05-06T21:32:09.508Z,6.40
2023-05-06T21:35:11.490Z,6.20
2023-05-06T21:38:13.768Z,6.10
2023-05-06T21:41:16.608Z,5.72
2023-05-06T21:44:18.371Z,5.63
2023-05-06T21:47:20.517Z,6.70
2023-05-06T21:50:22.818Z,5.90
2023-05-06T21:53:25.223Z,5.80
2023-05-06T21:56:26.941Z,6.17
2023-05-06T21:59:28.618Z,6.20
2023-05-06T22:02:30.725Z,6.38
2023-05-06T22:05:32.864Z,5.90
2023-05-06T22:08:34.935Z,5.83
2023-05-06T22:11:38.776Z,5.38
2023-05-06T22:14:41.907Z,5.50
2023-05-06T22:17:44.115Z,5.70
2023-05-06T22:20:46.701Z,5.67
2023-05-06T22:23:49.748Z,5.60
2023-05-06T22:26:51.949Z,5.32
2023-05-06T22:29:53.620Z,5.70
2023-05-06T22:32:55.308Z,5.50
2023-05-06T22:35:57.547Z,6.05
2023-05-06T22:39:01.218Z,6.50
2023-05-06T22:42:04.530Z,5.68
2023-05-06T22:45:07.409Z,6.27
2023-05-06T22:48:10.912Z,6.32
2023-05-06T22:51:16.001Z,5.68
2023-05-06T22:54:18.533Z,6.07
2023-05-06T22:57:22.827Z,5.43
2023-05-06T23:00:25.027Z,5.30
2023-05-06T23:03:28.876Z,5.40
2023-05-06T23:06:31.148Z,5.50
2023-05-06T23:09:34.268Z,5.70
2023-05-06T23:12:36.025Z,5.95
2023-05-06T23:15:38.275Z,5.80
2023-05-06T23:18:40.747Z,6.10
2023-05-06T23:21:43.936Z,5.67
2023-05-06T23:24:46.409Z,5.80
2023-05-06T23:27:48.683Z,5.80
2023-05-06T23:30:50.895Z,6.18
2023-05-06T23:33:52.935Z,6.50
2023-05-06T23:36:56.634Z,6.35
2023-05-06T23:39:58.780Z,6.55
2023-05-06T23:43:00.849Z,6.72
2023-05-06T23:46:02.878Z,6.73
2023-05-06T23:49:05.894Z,6.60
2023-05-06T23:52:07.574Z,6.95
2023-05-06T23:55:10.119Z,6.78
2023-05-06T23:58:12.636Z,6.73
